sensor_id;sensor_type;location;lat;lon;timestamp;P1;durP1;ratioP1;P2;durP2;ratioP2
7573;SDS011;3828;48.922;9.116;2023-01-28T00:01:26;4.97;;;4.57;;
7573;SDS011;3828;48.922;9.116;2023-01-28T00:03:56;5.57;;;5.07;;
7573;SDS011;3828;48.922;9.116;2023-01-28T00:06:24;4.83;;;4.43;;
7573;SDS011;3828;48.922;9.116;2023-01-28T00:08:51;4.70;;;4.30;;
7573;SDS011;3828;48.922;9.116;2023-01-28T00:11:19;4.60;;;4.27;;
7573;SDS011;3828;48.922;9.116;2023-01-28T00:13:49;4.37;;;3.97;;
7573;SDS011;3828;48.922;9.116;2023-01-28T00:16:17;4.87;;;4.47;;
7573;SDS011;3828;48.922;9.116;2023-01-28T00:18:44;4.53;;;4.10;;
7573;SDS011;3828;48.922;9.116;2023-01-28T00:21:12;4.93;;;4.40;;
7573;SDS011;3828;48.922;9.116;2023-01-28T00:23:41;4.27;;;3.97;;
7573;SDS011;3828;48.922;9.116;2023-01-28T00:26:10;4.33;;;3.93;;
7573;SDS011;3828;48.922;9.116;2023-01-28T00:28:38;5.20;;;4.80;;
7573;SDS011;3828;48.922;9.116;2023-01-28T00:31:05;3.37;;;3.17;;
7573;SDS011;3828;48.922;9.116;2023-01-28T00:33:33;4.23;;;3.90;;
7573;SDS011;3828;48.922;9.116;2023-01-28T00:36:01;4.40;;;4.00;;
7573;SDS011;3828;48.922;9.116;2023-01-28T00:38:32;4.77;;;4.37;;
7573;SDS011;3828;48.922;9.116;2023-01-28T00:41:05;4.40;;;4.10;;
7573;SDS011;3828;48.922;9.116;2023-01-28T00:43:32;4.17;;;3.87;;
7573;SDS011;3828;48.922;9.116;2023-01-28T00:45:59;4.83;;;4.40;;
7573;SDS011;3828;48.922;9.116;2023-01-28T00:48:26;3.93;;;3.63;;
7573;SDS011;3828;48.922;9.116;2023-01-28T00:50:53;4.63;;;4.23;;
7573;SDS011;3828;48.922;9.116;2023-01-28T00:53:19;4.23;;;3.93;;
7573;SDS011;3828;48.922;9.116;2023-01-28T00:55:48;4.43;;;4.03;;
7573;SDS011;3828;48.922;9.116;2023-01-28T00:58:15;4.47;;;4.07;;
7573;SDS011;3828;48.922;9.116;2023-01-28T01:00:42;4.63;;;4.33;;
7573;SDS011;3828;48.922;9.116;2023-01-28T01:03:08;4.77;;;4.37;;
7573;SDS011;3828;48.922;9.116;2023-01-28T01:05:35;4.13;;;3.73;;
7573;SDS011;3828;48.922;9.116;2023-01-28T01:08:02;5.07;;;3.97;;
7573;SDS011;3828;48.922;9.116;2023-01-28T01:10:29;4.03;;;3.73;;
7573;SDS011;3828;48.922;9.116;2023-01-28T01:12:57;4.73;;;4.37;;
7573;SDS011;3828;48.922;9.116;2023-01-28T01:15:24;5.30;;;4.80;;
7573;SDS011;3828;48.922;9.116;2023-01-28T01:17:51;4.27;;;3.90;;
7573;SDS011;3828;48.922;9.116;2023-01-28T01:20:18;4.43;;;4.03;;
7573;SDS011;3828;48.922;9.116;2023-01-28T01:22:46;4.47;;;4.17;;
7573;SDS011;3828;48.922;9.116;2023-01-28T01:25:13;3.97;;;3.70;;
7573;SDS011;3828;48.922;9.116;2023-01-28T01:27:42;4.07;;;3.77;;
7573;SDS011;3828;48.922;9.116;2023-01-28T01:30:11;4.37;;;4.07;;
7573;SDS011;3828;48.922;9.116;2023-01-28T01:32:38;4.30;;;3.90;;
7573;SDS011;3828;48.922;9.116;2023-01-28T01:35:06;4.00;;;3.70;;
7573;SDS011;3828;48.922;9.116;2023-01-28T01:37:34;4.00;;;3.70;;
7573;SDS011;3828;48.922;9.116;2023-01-28T01:40:02;4.60;;;4.30;;
7573;SDS011;3828;48.922;9.116;2023-01-28T01:42:29;4.10;;;3.80;;
7573;SDS011;3828;48.922;9.116;2023-01-28T01:44:59;3.90;;;3.67;;
7573;SDS011;3828;48.922;9.116;2023-01-28T01:47:31;4.30;;;4.00;;
7573;SDS011;3828;48.922;9.116;2023-01-28T01:50:02;4.30;;;4.00;;
7573;SDS011;3828;48.922;9.116;2023-01-28T01:52:34;4.60;;;4.30;;
7573;SDS011;3828;48.922;9.116;2023-01-28T01:55:03;4.13;;;3.90;;
7573;SDS011;3828;48.922;9.116;2023-01-28T01:57:34;4.43;;;4.07;;
7573;SDS011;3828;48.922;9.116;2023-01-28T02:00:03;4.60;;;4.20;;
7573;SDS011;3828;48.922;9.116;2023-01-28T02:02:35;3.73;;;3.53;;
7573;SDS011;3828;48.922;9.116;2023-01-28T02:05:04;3.80;;;3.50;;
7573;SDS011;3828;48.922;9.116;2023-01-28T02:07:33;4.37;;;4.07;;
7573;SDS011;3828;48.922;9.116;2023-01-28T02:10:00;4.37;;;4.07;;
7573;SDS011;3828;48.922;9.116;2023-01-28T02:12:28;4.10;;;3.90;;
7573;SDS011;3828;48.922;9.116;2023-01-28T02:14:59;4.50;;;4.10;;
7573;SDS011;3828;48.922;9.116;2023-01-28T02:17:28;4.53;;;4.13;;
7573;SDS011;3828;48.922;9.116;2023-01-28T02:19:58;4.33;;;4.03;;
7573;SDS011;3828;48.922;9.116;2023-01-28T02:22:35;4.57;;;4.13;;
7573;SDS011;3828;48.922;9.116;2023-01-28T02:25:32;3.90;;;3.63;;
7573;SDS011;3828;48.922;9.116;2023-01-28T02:28:28;4.50;;;4.20;;
7573;SDS011;3828;48.922;9.116;2023-01-28T02:30:59;4.40;;;4.00;;
7573;SDS011;3828;48.922;9.116;2023-01-28T02:33:32;4.60;;;4.20;;
7573;SDS011;3828;48.922;9.116;2023-01-28T02:36:07;4.33;;;4.10;;
7573;SDS011;3828;48.922;9.116;2023-01-28T02:38:42;4.67;;;4.37;;
7573;SDS011;3828;48.922;9.116;2023-01-28T02:41:14;4.50;;;4.10;;
7573;SDS011;3828;48.922;9.116;2023-01-28T02:43:49;4.70;;;4.40;;
7573;SDS011;3828;48.922;9.116;2023-01-28T02:46:18;4.40;;;4.10;;
7573;SDS011;3828;48.922;9.116;2023-01-28T02:49:07;4.70;;;4.30;;
7573;SDS011;3828;48.922;9.116;2023-01-28T02:51:42;4.27;;;3.97;;
7573;SDS011;3828;48.922;9.116;2023-01-28T02:54:19;4.67;;;4.27;;
7573;SDS011;3828;48.922;9.116;2023-01-28T02:56:58;4.93;;;4.53;;
7573;SDS011;3828;48.922;9.116;2023-01-28T02:59:37;5.03;;;4.63;;
7573;SDS011;3828;48.922;9.116;2023-01-28T03:02:09;4.53;;;4.13;;
7573;SDS011;3828;48.922;9.116;2023-01-28T03:04:43;4.53;;;4.13;;
7573;SDS011;3828;48.922;9.116;2023-01-28T03:07:14;5.80;;;5.17;;
7573;SDS011;3828;48.922;9.116;2023-01-28T03:09:42;5.27;;;4.77;;
7573;SDS011;3828;48.922;9.116;2023-01-28T03:12:11;5.33;;;4.83;;
7573;SDS011;3828;48.922;9.116;2023-01-28T03:15:03;5.73;;;5.27;;
7573;SDS011;3828;48.922;9.116;2023-01-28T03:17:51;5.30;;;4.90;;
7573;SDS011;3828;48.922;9.116;2023-01-28T03:20:43;6.03;;;5.43;;
7573;SDS011;3828;48.922;9.116;2023-01-28T03:23:40;5.50;;;5.00;;
7573;SDS011;3828;48.922;9.116;2023-01-28T03:26:30;5.73;;;5.03;;
7573;SDS011;3828;48.922;9.116;2023-01-28T03:29:21;5.93;;;5.43;;
7573;SDS011;3828;48.922;9.116;2023-01-28T03:32:09;6.43;;;5.83;;
7573;SDS011;3828;48.922;9.116;2023-01-28T03:34:54;5.87;;;5.27;;
7573;SDS011;3828;48.922;9.116;2023-01-28T03:37:39;5.33;;;4.87;;
7573;SDS011;3828;48.922;9.116;2023-01-28T03:40:06;5.00;;;4.60;;
7573;SDS011;3828;48.922;9.116;2023-01-28T03:42:33;5.67;;;5.17;;
7573;SDS011;3828;48.922;9.116;2023-01-28T03:45:00;6.07;;;5.57;;
7573;SDS011;3828;48.922;9.116;2023-01-28T03:47:30;5.30;;;4.87;;
7573;SDS011;3828;48.922;9.116;2023-01-28T03:49:58;5.03;;;4.63;;
7573;SDS011;3828;48.922;9.116;2023-01-28T03:52:25;6.00;;;5.50;;
7573;SDS011;3828;48.922;9.116;2023-01-28T03:54:55;5.73;;;5.13;;
7573;SDS011;3828;48.922;9.116;2023-01-28T03:57:23;5.43;;;5.03;;
7573;SDS011;3828;48.922;9.116;2023-01-28T03:59:52;6.43;;;5.83;;
7573;SDS011;3828;48.922;9.116;2023-01-28T04:02:19;5.33;;;4.90;;
7573;SDS011;3828;48.922;9.116;2023-01-28T04:04:48;5.30;;;4.83;;
7573;SDS011;3828;48.922;9.116;2023-01-28T04:07:15;5.63;;;5.10;;
7573;SDS011;3828;48.922;9.116;2023-01-28T04:09:42;5.90;;;5.40;;
7573;SDS011;3828;48.922;9.116;2023-01-28T04:12:09;5.17;;;4.77;;
7573;SDS011;3828;48.922;9.116;2023-01-28T04:14:36;5.60;;;5.10;;
7573;SDS011;3828;48.922;9.116;2023-01-28T04:17:04;5.70;;;5.20;;
7573;SDS011;3828;48.922;9.116;2023-01-28T04:19:34;5.73;;;5.23;;
7573;SDS011;3828;48.922;9.116;2023-01-28T04:22:03;5.33;;;4.87;;
7573;SDS011;3828;48.922;9.116;2023-01-28T04:24:31;5.57;;;5.17;;
7573;SDS011;3828;48.922;9.116;2023-01-28T04:26:58;5.30;;;4.90;;
7573;SDS011;3828;48.922;9.116;2023-01-28T04:29:25;5.87;;;5.33;;
7573;SDS011;3828;48.922;9.116;2023-01-28T04:31:51;5.90;;;5.27;;
7573;SDS011;3828;48.922;9.116;2023-01-28T04:34:18;5.93;;;5.43;;
7573;SDS011;3828;48.922;9.116;2023-01-28T04:36:45;5.87;;;5.37;;
7573;SDS011;3828;48.922;9.116;2023-01-28T04:39:13;5.60;;;5.10;;
7573;SDS011;3828;48.922;9.116;2023-01-28T04:41:40;6.40;;;5.80;;
7573;SDS011;3828;48.922;9.116;2023-01-28T04:44:07;6.20;;;5.70;;
7573;SDS011;3828;48.922;9.116;2023-01-28T04:46:33;6.23;;;5.73;;
7573;SDS011;3828;48.922;9.116;2023-01-28T04:49:00;6.57;;;5.97;;
7573;SDS011;3828;48.922;9.116;2023-01-28T04:51:27;6.63;;;6.07;;
7573;SDS011;3828;48.922;9.116;2023-01-28T04:53:54;6.10;;;5.57;;
7573;SDS011;3828;48.922;9.116;2023-01-28T04:56:22;6.70;;;6.13;;
7573;SDS011;3828;48.922;9.116;2023-01-28T04:58:49;6.33;;;5.73;;
7573;SDS011;3828;48.922;9.116;2023-01-28T05:01:15;6.27;;;5.27;;
7573;SDS011;3828;48.922;9.116;2023-01-28T05:03:42;6.27;;;5.77;;
7573;SDS011;3828;48.922;9.116;2023-01-28T05:06:09;5.97;;;5.47;;
7573;SDS011;3828;48.922;9.116;2023-01-28T05:08:36;8.57;;;5.63;;
7573;SDS011;3828;48.922;9.116;2023-01-28T05:11:02;6.43;;;5.93;;
7573;SDS011;3828;48.922;9.116;2023-01-28T05:13:31;5.83;;;5.33;;
7573;SDS011;3828;48.922;9.116;2023-01-28T05:15:57;5.97;;;5.47;;
7573;SDS011;3828;48.922;9.116;2023-01-28T05:18:24;6.97;;;5.57;;
7573;SDS011;3828;48.922;9.116;2023-01-28T05:20:51;6.20;;;5.60;;
7573;SDS011;3828;48.922;9.116;2023-01-28T05:23:18;6.43;;;5.83;;
7573;SDS011;3828;48.922;9.116;2023-01-28T05:25:44;6.43;;;5.83;;
7573;SDS011;3828;48.922;9.116;2023-01-28T05:28:12;5.80;;;5.30;;
7573;SDS011;3828;48.922;9.116;2023-01-28T05:30:40;6.53;;;5.93;;
7573;SDS011;3828;48.922;9.116;2023-01-28T05:33:07;5.87;;;5.43;;
7573;SDS011;3828;48.922;9.116;2023-01-28T05:35:36;6.87;;;6.17;;
7573;SDS011;3828;48.922;9.116;2023-01-28T05:38:04;6.10;;;5.50;;
7573;SDS011;3828;48.922;9.116;2023-01-28T05:40:30;7.07;;;6.37;;
7573;SDS011;3828;48.922;9.116;2023-01-28T05:42:57;7.67;;;6.13;;
7573;SDS011;3828;48.922;9.116;2023-01-28T05:45:24;7.17;;;6.47;;
7573;SDS011;3828;48.922;9.116;2023-01-28T05:47:52;6.10;;;5.50;;
7573;SDS011;3828;48.922;9.116;2023-01-28T05:50:19;6.40;;;5.93;;
7573;SDS011;3828;48.922;9.116;2023-01-28T05:52:45;6.93;;;6.33;;
7573;SDS011;3828;48.922;9.116;2023-01-28T05:55:12;7.20;;;6.60;;
7573;SDS011;3828;48.922;9.116;2023-01-28T05:57:39;6.87;;;6.23;;
7573;SDS011;3828;48.922;9.116;2023-01-28T06:00:06;6.60;;;6.03;;
7573;SDS011;3828;48.922;9.116;2023-01-28T06:02:34;7.83;;;7.13;;
7573;SDS011;3828;48.922;9.116;2023-01-28T06:05:02;6.73;;;6.20;;
7573;SDS011;3828;48.922;9.116;2023-01-28T06:07:29;7.57;;;6.87;;
7573;SDS011;3828;48.922;9.116;2023-01-28T06:09:56;6.33;;;5.83;;
7573;SDS011;3828;48.922;9.116;2023-01-28T06:12:24;7.03;;;6.30;;
7573;SDS011;3828;48.922;9.116;2023-01-28T06:14:52;7.20;;;6.50;;
7573;SDS011;3828;48.922;9.116;2023-01-28T06:17:18;6.63;;;5.50;;
7573;SDS011;3828;48.922;9.116;2023-01-28T06:19:45;8.47;;;7.67;;
7573;SDS011;3828;48.922;9.116;2023-01-28T06:22:13;7.53;;;6.87;;
7573;SDS011;3828;48.922;9.116;2023-01-28T06:24:40;7.60;;;6.90;;
7573;SDS011;3828;48.922;9.116;2023-01-28T06:27:08;7.13;;;6.53;;
7573;SDS011;3828;48.922;9.116;2023-01-28T06:29:35;8.33;;;7.53;;
7573;SDS011;3828;48.922;9.116;2023-01-28T06:32:01;6.50;;;5.90;;
7573;SDS011;3828;48.922;9.116;2023-01-28T06:34:28;6.83;;;6.23;;
7573;SDS011;3828;48.922;9.116;2023-01-28T06:36:55;7.93;;;7.13;;
7573;SDS011;3828;48.922;9.116;2023-01-28T06:39:25;7.07;;;6.37;;
7573;SDS011;3828;48.922;9.116;2023-01-28T06:41:55;7.07;;;6.40;;
7573;SDS011;3828;48.922;9.116;2023-01-28T06:44:22;8.07;;;7.27;;
7573;SDS011;3828;48.922;9.116;2023-01-28T06:46:49;7.87;;;7.07;;
7573;SDS011;3828;48.922;9.116;2023-01-28T06:49:16;7.60;;;6.90;;
7573;SDS011;3828;48.922;9.116;2023-01-28T06:51:42;7.27;;;6.67;;
7573;SDS011;3828;48.922;9.116;2023-01-28T06:54:09;6.93;;;6.30;;
7573;SDS011;3828;48.922;9.116;2023-01-28T06:56:37;7.60;;;6.90;;
7573;SDS011;3828;48.922;9.116;2023-01-28T06:59:04;7.57;;;6.87;;
7573;SDS011;3828;48.922;9.116;2023-01-28T07:01:31;8.27;;;7.37;;
7573;SDS011;3828;48.922;9.116;2023-01-28T07:03:58;9.60;;;7.63;;
7573;SDS011;3828;48.922;9.116;2023-01-28T07:06:25;6.90;;;6.30;;
7573;SDS011;3828;48.922;9.116;2023-01-28T07:08:52;8.47;;;7.33;;
7573;SDS011;3828;48.922;9.116;2023-01-28T07:11:20;7.80;;;7.10;;
7573;SDS011;3828;48.922;9.116;2023-01-28T07:13:49;7.87;;;7.07;;
7573;SDS011;3828;48.922;9.116;2023-01-28T07:16:20;8.23;;;7.43;;
7573;SDS011;3828;48.922;9.116;2023-01-28T07:18:46;7.57;;;6.87;;
7573;SDS011;3828;48.922;9.116;2023-01-28T07:21:13;8.63;;;7.73;;
7573;SDS011;3828;48.922;9.116;2023-01-28T07:23:40;8.43;;;7.63;;
7573;SDS011;3828;48.922;9.116;2023-01-28T07:26:08;8.30;;;7.50;;
7573;SDS011;3828;48.922;9.116;2023-01-28T07:28:36;8.97;;;8.07;;
7573;SDS011;3828;48.922;9.116;2023-01-28T07:31:05;8.40;;;7.30;;
7573;SDS011;3828;48.922;9.116;2023-01-28T07:33:32;8.80;;;7.97;;
7573;SDS011;3828;48.922;9.116;2023-01-28T07:35:58;8.43;;;7.63;;
7573;SDS011;3828;48.922;9.116;2023-01-28T07:38:25;8.23;;;7.47;;
7573;SDS011;3828;48.922;9.116;2023-01-28T07:40:52;7.47;;;6.87;;
7573;SDS011;3828;48.922;9.116;2023-01-28T07:43:19;9.03;;;8.13;;
7573;SDS011;3828;48.922;9.116;2023-01-28T07:45:46;9.50;;;8.57;;
7573;SDS011;3828;48.922;9.116;2023-01-28T07:48:14;9.57;;;8.63;;
7573;SDS011;3828;48.922;9.116;2023-01-28T07:50:41;9.37;;;8.40;;
7573;SDS011;3828;48.922;9.116;2023-01-28T07:53:08;8.93;;;8.03;;
7573;SDS011;3828;48.922;9.116;2023-01-28T07:55:37;9.13;;;8.17;;
7573;SDS011;3828;48.922;9.116;2023-01-28T07:58:05;8.50;;;7.80;;
7573;SDS011;3828;48.922;9.116;2023-01-28T08:00:33;9.20;;;8.20;;
7573;SDS011;3828;48.922;9.116;2023-01-28T08:03:04;9.63;;;8.73;;
7573;SDS011;3828;48.922;9.116;2023-01-28T08:05:37;9.17;;;8.30;;
7573;SDS011;3828;48.922;9.116;2023-01-28T08:08:07;9.27;;;8.30;;
7573;SDS011;3828;48.922;9.116;2023-01-28T08:10:34;9.50;;;8.60;;
7573;SDS011;3828;48.922;9.116;2023-01-28T08:13:03;8.67;;;7.83;;
7573;SDS011;3828;48.922;9.116;2023-01-28T08:15:31;9.10;;;8.30;;
7573;SDS011;3828;48.922;9.116;2023-01-28T08:17:58;8.97;;;8.10;;
7573;SDS011;3828;48.922;9.116;2023-01-28T08:20:30;8.50;;;7.70;;
7573;SDS011;3828;48.922;9.116;2023-01-28T08:23:05;9.10;;;8.20;;
7573;SDS011;3828;48.922;9.116;2023-01-28T08:25:34;9.10;;;8.20;;
7573;SDS011;3828;48.922;9.116;2023-01-28T08:28:01;10.77;;;8.73;;
7573;SDS011;3828;48.922;9.116;2023-01-28T08:30:28;9.27;;;8.37;;
7573;SDS011;3828;48.922;9.116;2023-01-28T08:32:55;9.63;;;8.67;;
7573;SDS011;3828;48.922;9.116;2023-01-28T08:35:27;9.23;;;7.97;;
7573;SDS011;3828;48.922;9.116;2023-01-28T08:37:57;9.67;;;8.63;;
7573;SDS011;3828;48.922;9.116;2023-01-28T08:40:31;10.27;;;9.20;;
7573;SDS011;3828;48.922;9.116;2023-01-28T08:43:06;10.37;;;9.30;;
7573;SDS011;3828;48.922;9.116;2023-01-28T08:45:33;10.93;;;9.67;;
7573;SDS011;3828;48.922;9.116;2023-01-28T08:48:01;12.43;;;10.17;;
7573;SDS011;3828;48.922;9.116;2023-01-28T08:50:30;10.97;;;9.27;;
7573;SDS011;3828;48.922;9.116;2023-01-28T08:53:00;10.57;;;9.30;;
7573;SDS011;3828;48.922;9.116;2023-01-28T08:55:30;11.30;;;10.10;;
7573;SDS011;3828;48.922;9.116;2023-01-28T08:58:00;10.00;;;9.00;;
7573;SDS011;3828;48.922;9.116;2023-01-28T09:00:27;10.60;;;9.17;;
7573;SDS011;3828;48.922;9.116;2023-01-28T09:02:54;10.43;;;9.33;;
7573;SDS011;3828;48.922;9.116;2023-01-28T09:05:21;12.53;;;10.40;;
7573;SDS011;3828;48.922;9.116;2023-01-28T09:07:48;11.20;;;9.37;;
7573;SDS011;3828;48.922;9.116;2023-01-28T09:10:15;11.77;;;9.10;;
7573;SDS011;3828;48.922;9.116;2023-01-28T09:12:45;11.63;;;9.83;;
7573;SDS011;3828;48.922;9.116;2023-01-28T09:15:12;11.93;;;9.97;;
7573;SDS011;3828;48.922;9.116;2023-01-28T09:17:41;9.97;;;8.93;;
7573;SDS011;3828;48.922;9.116;2023-01-28T09:20:09;11.10;;;9.27;;
7573;SDS011;3828;48.922;9.116;2023-01-28T09:22:37;12.53;;;11.33;;
7573;SDS011;3828;48.922;9.116;2023-01-28T09:25:04;10.57;;;9.50;;
7573;SDS011;3828;48.922;9.116;2023-01-28T09:27:32;10.73;;;9.63;;
7573;SDS011;3828;48.922;9.116;2023-01-28T09:30:00;9.87;;;8.73;;
7573;SDS011;3828;48.922;9.116;2023-01-28T09:32:27;11.50;;;10.40;;
7573;SDS011;3828;48.922;9.116;2023-01-28T09:34:55;10.27;;;9.27;;
7573;SDS011;3828;48.922;9.116;2023-01-28T09:37:22;10.83;;;9.83;;
7573;SDS011;3828;48.922;9.116;2023-01-28T09:39:48;12.73;;;9.80;;
7573;SDS011;3828;48.922;9.116;2023-01-28T09:42:22;10.07;;;8.60;;
7573;SDS011;3828;48.922;9.116;2023-01-28T09:45:07;11.40;;;9.20;;
7573;SDS011;3828;48.922;9.116;2023-01-28T09:47:40;11.97;;;9.57;;
7573;SDS011;3828;48.922;9.116;2023-01-28T09:50:11;12.23;;;9.83;;
7573;SDS011;3828;48.922;9.116;2023-01-28T09:52:42;10.10;;;9.07;;
7573;SDS011;3828;48.922;9.116;2023-01-28T09:55:13;10.60;;;9.27;;
7573;SDS011;3828;48.922;9.116;2023-01-28T09:57:44;12.50;;;10.13;;
7573;SDS011;3828;48.922;9.116;2023-01-28T10:00:17;15.23;;;10.90;;
7573;SDS011;3828;48.922;9.116;2023-01-28T10:02:49;10.70;;;9.60;;
7573;SDS011;3828;48.922;9.116;2023-01-28T10:05:31;9.70;;;8.67;;
7573;SDS011;3828;48.922;9.116;2023-01-28T10:08:07;11.47;;;9.80;;
7573;SDS011;3828;48.922;9.116;2023-01-28T10:10:46;11.23;;;10.00;;
7573;SDS011;3828;48.922;9.116;2023-01-28T10:13:21;9.60;;;8.70;;
7573;SDS011;3828;48.922;9.116;2023-01-28T10:16:07;12.30;;;9.50;;
7573;SDS011;3828;48.922;9.116;2023-01-28T10:18:45;8.67;;;7.63;;
7573;SDS011;3828;48.922;9.116;2023-01-28T10:21:16;9.83;;;8.83;;
7573;SDS011;3828;48.922;9.116;2023-01-28T10:23:53;11.70;;;8.83;;
7573;SDS011;3828;48.922;9.116;2023-01-28T10:26:24;10.73;;;9.23;;
7573;SDS011;3828;48.922;9.116;2023-01-28T10:28:56;11.00;;;9.00;;
7573;SDS011;3828;48.922;9.116;2023-01-28T10:31:31;9.77;;;8.77;;
7573;SDS011;3828;48.922;9.116;2023-01-28T10:34:03;11.30;;;9.40;;
7573;SDS011;3828;48.922;9.116;2023-01-28T10:36:30;10.73;;;9.47;;
7573;SDS011;3828;48.922;9.116;2023-01-28T10:38:58;12.13;;;10.87;;
7573;SDS011;3828;48.922;9.116;2023-01-28T10:41:25;12.17;;;10.27;;
7573;SDS011;3828;48.922;9.116;2023-01-28T10:43:52;11.27;;;9.67;;
7573;SDS011;3828;48.922;9.116;2023-01-28T10:46:20;9.67;;;8.63;;
7573;SDS011;3828;48.922;9.116;2023-01-28T10:48:53;10.13;;;8.90;;
7573;SDS011;3828;48.922;9.116;2023-01-28T10:51:31;11.30;;;9.80;;
7573;SDS011;3828;48.922;9.116;2023-01-28T10:54:01;11.00;;;9.50;;
7573;SDS011;3828;48.922;9.116;2023-01-28T10:56:29;11.53;;;9.27;;
7573;SDS011;3828;48.922;9.116;2023-01-28T10:58:59;11.83;;;9.47;;
7573;SDS011;3828;48.922;9.116;2023-01-28T11:01:40;11.70;;;9.90;;
7573;SDS011;3828;48.922;9.116;2023-01-28T11:04:15;11.23;;;9.70;;
7573;SDS011;3828;48.922;9.116;2023-01-28T11:06:51;11.37;;;9.53;;
7573;SDS011;3828;48.922;9.116;2023-01-28T11:09:23;9.83;;;8.83;;
7573;SDS011;3828;48.922;9.116;2023-01-28T11:11:51;10.17;;;9.07;;
7573;SDS011;3828;48.922;9.116;2023-01-28T11:14:19;11.17;;;9.43;;
7573;SDS011;3828;48.922;9.116;2023-01-28T11:16:48;10.43;;;9.50;;
7573;SDS011;3828;48.922;9.116;2023-01-28T11:19:18;11.10;;;9.57;;
7573;SDS011;3828;48.922;9.116;2023-01-28T11:21:49;13.90;;;9.57;;
7573;SDS011;3828;48.922;9.116;2023-01-28T11:24:21;9.83;;;8.90;;
7573;SDS011;3828;48.922;9.116;2023-01-28T11:26:52;10.70;;;9.60;;
7573;SDS011;3828;48.922;9.116;2023-01-28T11:29:25;10.67;;;9.57;;
7573;SDS011;3828;48.922;9.116;2023-01-28T11:31:55;11.20;;;9.90;;
7573;SDS011;3828;48.922;9.116;2023-01-28T11:34:25;12.63;;;9.50;;
7573;SDS011;3828;48.922;9.116;2023-01-28T11:36:54;14.77;;;11.00;;
7573;SDS011;3828;48.922;9.116;2023-01-28T11:39:28;12.00;;;8.93;;
7573;SDS011;3828;48.922;9.116;2023-01-28T11:42:02;11.23;;;9.27;;
7573;SDS011;3828;48.922;9.116;2023-01-28T11:44:35;9.90;;;8.90;;
7573;SDS011;3828;48.922;9.116;2023-01-28T11:47:06;9.50;;;7.83;;
7573;SDS011;3828;48.922;9.116;2023-01-28T11:49:52;10.87;;;8.40;;
7573;SDS011;3828;48.922;9.116;2023-01-28T11:52:33;8.10;;;7.30;;
7573;SDS011;3828;48.922;9.116;2023-01-28T11:55:17;9.37;;;8.03;;
7573;SDS011;3828;48.922;9.116;2023-01-28T11:58:04;8.30;;;7.50;;
7573;SDS011;3828;48.922;9.116;2023-01-28T12:00:42;8.93;;;7.43;;
7573;SDS011;3828;48.922;9.116;2023-01-28T12:06:20;8.20;;;7.40;;
7573;SDS011;3828;48.922;9.116;2023-01-28T12:08:56;8.67;;;7.70;;
7573;SDS011;3828;48.922;9.116;2023-01-28T12:11:35;8.80;;;7.80;;
7573;SDS011;3828;48.922;9.116;2023-01-28T12:14:30;8.50;;;7.37;;
7573;SDS011;3828;48.922;9.116;2023-01-28T12:17:11;10.10;;;8.33;;
7573;SDS011;3828;48.922;9.116;2023-01-28T12:19:52;9.40;;;8.43;;
7573;SDS011;3828;48.922;9.116;2023-01-28T12:22:37;9.70;;;8.70;;
7573;SDS011;3828;48.922;9.116;2023-01-28T12:25:38;8.43;;;7.17;;
7573;SDS011;3828;48.922;9.116;2023-01-28T12:28:28;8.47;;;7.67;;
7573;SDS011;3828;48.922;9.116;2023-01-28T12:31:06;8.43;;;7.63;;
7573;SDS011;3828;48.922;9.116;2023-01-28T12:36:57;8.73;;;7.83;;
7573;SDS011;3828;48.922;9.116;2023-01-28T12:39:33;9.50;;;8.53;;
7573;SDS011;3828;48.922;9.116;2023-01-28T12:42:09;8.80;;;8.00;;
7573;SDS011;3828;48.922;9.116;2023-01-28T12:44:41;9.23;;;8.07;;
7573;SDS011;3828;48.922;9.116;2023-01-28T12:47:14;10.63;;;7.70;;
7573;SDS011;3828;48.922;9.116;2023-01-28T12:49:46;10.17;;;9.20;;
7573;SDS011;3828;48.922;9.116;2023-01-28T12:52:18;7.90;;;7.13;;
7573;SDS011;3828;48.922;9.116;2023-01-28T12:54:54;7.70;;;7.00;;
7573;SDS011;3828;48.922;9.116;2023-01-28T12:57:26;8.27;;;7.47;;
7573;SDS011;3828;48.922;9.116;2023-01-28T12:59:56;8.07;;;7.37;;
7573;SDS011;3828;48.922;9.116;2023-01-28T13:02:30;9.43;;;8.57;;
7573;SDS011;3828;48.922;9.116;2023-01-28T13:05:03;9.27;;;8.23;;
7573;SDS011;3828;48.922;9.116;2023-01-28T13:07:34;9.13;;;7.53;;
7573;SDS011;3828;48.922;9.116;2023-01-28T13:10:12;8.33;;;7.63;;
7573;SDS011;3828;48.922;9.116;2023-01-28T13:12:44;8.27;;;7.47;;
7573;SDS011;3828;48.922;9.116;2023-01-28T13:15:15;7.73;;;7.13;;
7573;SDS011;3828;48.922;9.116;2023-01-28T13:17:53;7.60;;;6.87;;
7573;SDS011;3828;48.922;9.116;2023-01-28T13:20:29;7.30;;;6.57;;
7573;SDS011;3828;48.922;9.116;2023-01-28T13:23:04;7.57;;;6.87;;
7573;SDS011;3828;48.922;9.116;2023-01-28T13:25:48;7.47;;;6.63;;
7573;SDS011;3828;48.922;9.116;2023-01-28T13:28:23;8.23;;;7.53;;
7573;SDS011;3828;48.922;9.116;2023-01-28T13:30:59;9.07;;;8.17;;
7573;SDS011;3828;48.922;9.116;2023-01-28T13:33:29;8.17;;;7.33;;
7573;SDS011;3828;48.922;9.116;2023-01-28T13:35:57;7.80;;;7.10;;
7573;SDS011;3828;48.922;9.116;2023-01-28T13:38:31;7.60;;;6.80;;
7573;SDS011;3828;48.922;9.116;2023-01-28T13:41:02;6.57;;;6.07;;
7573;SDS011;3828;48.922;9.116;2023-01-28T13:43:37;7.97;;;7.23;;
7573;SDS011;3828;48.922;9.116;2023-01-28T13:46:07;7.37;;;6.67;;
7573;SDS011;3828;48.922;9.116;2023-01-28T13:48:38;7.27;;;6.67;;
7573;SDS011;3828;48.922;9.116;2023-01-28T13:51:15;7.30;;;6.60;;
7573;SDS011;3828;48.922;9.116;2023-01-28T13:53:46;7.97;;;7.17;;
7573;SDS011;3828;48.922;9.116;2023-01-28T13:56:21;7.40;;;6.70;;
7573;SDS011;3828;48.922;9.116;2023-01-28T13:59:07;7.40;;;6.70;;
7573;SDS011;3828;48.922;9.116;2023-01-28T14:02:16;7.83;;;7.03;;
7573;SDS011;3828;48.922;9.116;2023-01-28T14:05:11;13.10;;;6.10;;
7573;SDS011;3828;48.922;9.116;2023-01-28T14:08:23;7.47;;;6.67;;
7573;SDS011;3828;48.922;9.116;2023-01-28T14:11:12;7.17;;;6.50;;
7573;SDS011;3828;48.922;9.116;2023-01-28T14:14:05;6.70;;;6.10;;
7573;SDS011;3828;48.922;9.116;2023-01-28T14:17:00;7.20;;;6.60;;
7573;SDS011;3828;48.922;9.116;2023-01-28T14:19:37;7.00;;;6.30;;
7573;SDS011;3828;48.922;9.116;2023-01-28T14:22:07;6.63;;;6.00;;
7573;SDS011;3828;48.922;9.116;2023-01-28T14:24:35;6.87;;;6.27;;
7573;SDS011;3828;48.922;9.116;2023-01-28T14:27:05;7.40;;;6.70;;
7573;SDS011;3828;48.922;9.116;2023-01-28T14:29:43;6.80;;;5.80;;
7573;SDS011;3828;48.922;9.116;2023-01-28T14:32:18;6.83;;;6.30;;
7573;SDS011;3828;48.922;9.116;2023-01-28T14:34:47;7.57;;;6.87;;
7573;SDS011;3828;48.922;9.116;2023-01-28T14:37:14;6.87;;;6.27;;
7573;SDS011;3828;48.922;9.116;2023-01-28T14:39:46;6.97;;;6.27;;
7573;SDS011;3828;48.922;9.116;2023-01-28T14:42:19;7.57;;;6.87;;
7573;SDS011;3828;48.922;9.116;2023-01-28T14:44:49;7.00;;;6.50;;
7573;SDS011;3828;48.922;9.116;2023-01-28T14:47:41;6.50;;;5.80;;
7573;SDS011;3828;48.922;9.116;2023-01-28T14:50:23;6.00;;;5.50;;
7573;SDS011;3828;48.922;9.116;2023-01-28T14:53:10;9.17;;;5.77;;
7573;SDS011;3828;48.922;9.116;2023-01-28T14:55:51;5.83;;;5.33;;
7573;SDS011;3828;48.922;9.116;2023-01-28T14:58:25;5.43;;;4.90;;
7573;SDS011;3828;48.922;9.116;2023-01-28T15:00:55;7.23;;;5.63;;
7573;SDS011;3828;48.922;9.116;2023-01-28T15:03:23;6.67;;;5.97;;
7573;SDS011;3828;48.922;9.116;2023-01-28T15:06:00;6.20;;;5.67;;
7573;SDS011;3828;48.922;9.116;2023-01-28T15:08:28;6.93;;;5.60;;
7573;SDS011;3828;48.922;9.116;2023-01-28T15:10:56;6.27;;;5.67;;
7573;SDS011;3828;48.922;9.116;2023-01-28T15:13:27;6.73;;;5.97;;
7573;SDS011;3828;48.922;9.116;2023-01-28T15:15:56;5.77;;;5.37;;
7573;SDS011;3828;48.922;9.116;2023-01-28T15:18:25;5.30;;;4.90;;
7573;SDS011;3828;48.922;9.116;2023-01-28T15:20:59;5.33;;;4.83;;
7573;SDS011;3828;48.922;9.116;2023-01-28T15:23:31;5.47;;;4.67;;
7573;SDS011;3828;48.922;9.116;2023-01-28T15:26:03;5.50;;;5.10;;
7573;SDS011;3828;48.922;9.116;2023-01-28T15:28:34;5.87;;;5.37;;
7573;SDS011;3828;48.922;9.116;2023-01-28T15:31:04;7.37;;;5.93;;
7573;SDS011;3828;48.922;9.116;2023-01-28T15:33:31;5.87;;;5.37;;
7573;SDS011;3828;48.922;9.116;2023-01-28T15:36:00;5.60;;;5.20;;
7573;SDS011;3828;48.922;9.116;2023-01-28T15:38:28;5.90;;;5.50;;
7573;SDS011;3828;48.922;9.116;2023-01-28T15:40:55;5.87;;;5.47;;
7573;SDS011;3828;48.922;9.116;2023-01-28T15:43:26;5.87;;;5.47;;
7573;SDS011;3828;48.922;9.116;2023-01-28T15:45:57;5.60;;;5.23;;